KDBQ/DBQ METAR and TAF weather

Enter ICAO airport designator
Station Type Date Time Source
KDBQ METAR 2019/12/08 18:53 UTC NOAA

KDBQ 081853Z 22010KT 10SM CLR 04/01 A2979 RMK AO2 SLP096 T00440006


Station Type Date Time Source
KDBQ Decoded METAR 2019/12/08 18:53 UTC NOAA

DUBUQUE REGIONAL AIRPORT, IA, United States (KDBQ) 42-24N 90-42W 326M
Dec 08, 2019 - 01:53 PM EST / 2019.12.08 1853 UTC
Wind: from the SW (220 degrees) at 12 MPH (10 KT):0
Visibility: 10 mile(s):0
Sky conditions: clear
Temperature: 39.9 F (4.4 C)
Dew Point: 33.1 F (0.6 C)
Relative Humidity: 76%
Pressure (altimeter): 29.79 in. Hg (1008 hPa)
ob: KDBQ 081853Z 22010KT 10SM CLR 04/01 A2979 RMK AO2 SLP096 T00440006
cycle: 19

Station Type Date Time Source
KDBQ TAF 2019/12/08 18:22 UTC NOAA

TAF KDBQ 081720Z 0818/0918 20012KT P6SM BKN070
FM090200 15004KT P6SM OVC020
FM090500 VRB03KT 2SM -DZ BR OVC008
FM090700 VRB04KT 3/4SM -DZ BR OVC004

Example: see airport list